Francisco Beltrao, Brazil
Current Conditions -  °F | °C
As of 7:00 PM on Wednesday 22 Oct 2014 (Local Time) from SBCH Reporting Station
Clear Clear  
Wind Chill: 77°   Ceiling: Unl
Heat Index: 79°   Visibility: 6mi
Dew Point: 64°   Wind: 9mph
Humidity: 65%   Direction: 130°SE
Pressure: 30.06"   Gusts: NA
Location:  26.08°S, 53.05°W
Report Text: SBCH 222100Z 13008KT CAVOK 25/18 Q1018
Loading
Personal Weather Stations






























Interactive Weather Map
Tropical Storm Tracking
New forecast layout! Learn more

10-Day Weather Forecast

Advertisements
Track Severe Weather on mobile